首页
METAR-TAF:

METAR-TAF

机场 :

普罗夫迪夫, 保加利亚

纬度: 42-08N, 经度: 024-45E, 海拔: 179米

当前天气观测

该预报发布于22分钟前的10:30 UTC
风速6节,风向多变
温度 34°C
湿度 34%
气压 1010 hPa
能见度10公里或以上

METAR: LBPD 201030Z AUTO VRB06KT 9999 FEW200/// 34/16 Q1010 NOSIG

时间: 13:52 (10:52 UTC)

预报

该预报发布于5小时和52分钟前的05:00 UTC
预报有效从20日的 06点(UTC)到 21日的 06点(UTC)
风速4节,风向多变
能见度10公里或以上
散云层高于7000英尺
成为
从 20日的 08点(UTC)到 20日的 10点(UTC)
风速10节,风向东转东南
成为
从 20日的 22点(UTC)到 20日的 24点(UTC)
风速4节,风向多变

TAF: LBPD 200500Z 2006/2106 VRB04KT 9999 SCT070 BECMG 2008/2010 11010KT BECMG 2022/2024 VRB04KT

超过4000个机场的气象观测和天气预报(METAR&TAF报告)。

可查询的气象台以黄色和红色小点在地图上表示。

将鼠标移到小点上方,可查看气象台名称。

然后点击查看天气观测和预报。

如需切换地图:点击带黑十字的绿色按钮放大地图;点击带横线的绿色按钮缩小地图;或者点击绿色箭头查看邻近地区的地图。


METAR-TAF: